Time;durP1;ratioP1;P1;durP2;ratioP2;P2;SDS_P1;SDS_P2;PMS_P1;PMS_P2;Temp;Humidity;BMP_temperature;BMP_pressure;BME280_temperature;BME280_humidity;BME280_pressure;Samples;Min_cycle;Max_cycle;Signal;HPM_P1;HPM_P2
2023/06/15 00:01:33;;;;;;;8.20;4.50;;;;;;;;;;5043578;28;20029;-72
2023/06/15 00:04:18;;;;;;;5.15;3.53;;;;;;;;;;5039945;28;20432;-73
2023/06/15 00:07:03;;;;;;;5.68;3.78;;;;;;;;;;5053236;28;20021;-72
2023/06/15 00:09:48;;;;;;;8.45;3.80;;;;;;;;;;5055581;28;20029;-72
2023/06/15 00:12:34;;;;;;;6.30;4.55;;;;;;;;;;5049626;28;20394;-70
2023/06/15 00:15:19;;;;;;;6.60;3.83;;;;;;;;;;5051724;28;20028;-70
2023/06/15 00:18:05;;;;;;;5.03;3.35;;;;;;;;;;5038986;28;20471;-71
2023/06/15 00:20:50;;;;;;;5.93;3.78;;;;;;;;;;5051041;28;20032;-70
2023/06/15 00:23:36;;;;;;;7.30;4.07;;;;;;;;;;5031035;28;20386;-71
2023/06/15 00:26:21;;;;;;;5.93;3.97;;;;;;;;;;5043851;28;20112;-71
2023/06/15 00:29:06;;;;;;;8.02;4.40;;;;;;;;;;5051346;28;20024;-69
2023/06/15 00:31:51;;;;;;;7.05;4.07;;;;;;;;;;5044015;28;20025;-62
2023/06/15 00:34:36;;;;;;;8.93;4.22;;;;;;;;;;5051622;28;20327;-65
2023/06/15 00:37:22;;;;;;;5.50;3.60;;;;;;;;;;5048098;28;20034;-65
2023/06/15 00:40:07;;;;;;;9.15;4.25;;;;;;;;;;5054581;28;20526;-65
2023/06/15 00:42:52;;;;;;;6.93;3.63;;;;;;;;;;5057366;28;20036;-64
2023/06/15 00:45:38;;;;;;;8.13;3.95;;;;;;;;;;5046268;28;20028;-66
2023/06/15 00:48:23;;;;;;;6.90;4.35;;;;;;;;;;5051679;28;20041;-65
2023/06/15 00:51:08;;;;;;;6.15;4.18;;;;;;;;;;5052721;28;20032;-72
2023/06/15 00:53:54;;;;;;;7.80;4.22;;;;;;;;;;5052590;28;20569;-72
2023/06/15 00:56:39;;;;;;;8.73;4.57;;;;;;;;;;5046312;28;20036;-73
2023/06/15 00:59:24;;;;;;;5.13;3.25;;;;;;;;;;5055178;28;20024;-74
2023/06/15 01:02:12;;;;;;;8.82;3.92;;;;;;;;;;5050098;28;20025;-72
2023/06/15 01:04:57;;;;;;;6.53;4.10;;;;;;;;;;5054655;28;20029;-74
2023/06/15 01:07:51;;;;;;;7.10;4.03;;;;;;;;;;5046132;28;20418;-66
2023/06/15 01:10:36;;;;;;;5.43;3.78;;;;;;;;;;5041330;28;20044;-69
2023/06/15 01:13:22;;;;;;;6.18;3.85;;;;;;;;;;5037744;28;20039;-69
2023/06/15 01:16:09;;;;;;;7.32;4.25;;;;;;;;;;5055132;28;20036;-70
2023/06/15 01:18:57;;;;;;;7.63;4.18;;;;;;;;;;5057729;28;20032;-70
2023/06/15 01:21:42;;;;;;;7.03;4.32;;;;;;;;;;5058005;28;20111;-71
2023/06/15 01:24:33;;;;;;;6.78;4.28;;;;;;;;;;5044947;28;20060;-71
2023/06/15 01:27:21;;;;;;;5.85;3.95;;;;;;;;;;5048617;28;20040;-68
2023/06/15 01:30:07;;;;;;;6.05;3.63;;;;;;;;;;5059977;28;20028;-71
2023/06/15 01:32:56;;;;;;;6.53;4.05;;;;;;;;;;5052834;28;20064;-70
2023/06/15 01:35:41;;;;;;;8.20;4.60;;;;;;;;;;5051882;28;20039;-70
2023/06/15 01:38:28;;;;;;;7.00;3.80;;;;;;;;;;5053244;28;20043;-71
2023/06/15 01:41:15;;;;;;;6.93;3.58;;;;;;;;;;5039277;28;20368;-70
2023/06/15 01:44:01;;;;;;;5.55;3.92;;;;;;;;;;5045171;28;20036;-69
2023/06/15 01:46:46;;;;;;;5.38;3.47;;;;;;;;;;5055610;28;20029;-73
2023/06/15 01:49:32;;;;;;;6.38;3.53;;;;;;;;;;5053089;28;20025;-65
2023/06/15 01:52:17;;;;;;;6.82;4.05;;;;;;;;;;5053747;28;20047;-64
2023/06/15 01:55:03;;;;;;;7.82;3.97;;;;;;;;;;5055339;28;20021;-66
2023/06/15 01:57:48;;;;;;;7.25;3.47;;;;;;;;;;5038365;28;20075;-66
2023/06/15 02:00:33;;;;;;;8.63;3.50;;;;;;;;;;5055277;28;20439;-65
2023/06/15 02:03:19;;;;;;;6.47;3.90;;;;;;;;;;5028488;28;20050;-70
2023/06/15 02:06:04;;;;;;;8.02;3.88;;;;;;;;;;5052689;28;20092;-67
2023/06/15 02:08:50;;;;;;;7.65;3.92;;;;;;;;;;5054997;28;20056;-66
2023/06/15 02:11:35;;;;;;;4.60;3.30;;;;;;;;;;5064473;28;20054;-66
2023/06/15 02:14:23;;;;;;;6.20;3.95;;;;;;;;;;5041705;28;20128;-65
2023/06/15 02:17:10;;;;;;;5.35;3.30;;;;;;;;;;5055122;28;20028;-65
2023/06/15 02:19:56;;;;;;;5.68;3.70;;;;;;;;;;5040000;28;20105;-67
2023/06/15 02:22:41;;;;;;;7.78;4.05;;;;;;;;;;5059805;28;20421;-69
2023/06/15 02:25:29;;;;;;;5.65;3.42;;;;;;;;;;5044454;28;20029;-74
2023/06/15 02:28:15;;;;;;;7.07;4.25;;;;;;;;;;5053870;28;20415;-73
2023/06/15 02:31:00;;;;;;;5.20;3.58;;;;;;;;;;5056245;28;20113;-72
2023/06/15 02:33:45;;;;;;;5.45;3.60;;;;;;;;;;5055271;28;20040;-73
2023/06/15 02:36:31;;;;;;;6.60;4.32;;;;;;;;;;5042149;28;20051;-75
2023/06/15 02:39:17;;;;;;;7.53;4.03;;;;;;;;;;5056145;28;20044;-66
2023/06/15 02:42:02;;;;;;;6.53;4.30;;;;;;;;;;5034695;28;20296;-71
2023/06/15 02:44:47;;;;;;;5.43;3.65;;;;;;;;;;5055149;28;20020;-66
2023/06/15 02:47:33;;;;;;;7.65;3.88;;;;;;;;;;5056399;28;20090;-66
2023/06/15 02:50:18;;;;;;;8.02;3.90;;;;;;;;;;5046429;28;20033;-65
2023/06/15 02:53:04;;;;;;;7.47;4.10;;;;;;;;;;5052491;28;20031;-63
2023/06/15 02:55:51;;;;;;;7.32;3.90;;;;;;;;;;5047231;28;20033;-63
2023/06/15 02:58:37;;;;;;;5.85;3.55;;;;;;;;;;5046824;28;20039;-70
2023/06/15 03:01:23;;;;;;;7.78;3.45;;;;;;;;;;5054877;28;20058;-65
2023/06/15 03:04:09;;;;;;;5.18;3.63;;;;;;;;;;5054024;28;20036;-65
2023/06/15 03:06:56;;;;;;;5.75;3.60;;;;;;;;;;5054230;28;20463;-65
2023/06/15 03:09:41;;;;;;;5.50;3.45;;;;;;;;;;5050831;28;20032;-64
2023/06/15 03:12:26;;;;;;;5.95;3.72;;;;;;;;;;5051161;28;20431;-66
2023/06/15 03:15:12;;;;;;;7.38;4.07;;;;;;;;;;5056797;28;20075;-67
2023/06/15 03:17:57;;;;;;;6.10;3.88;;;;;;;;;;5051676;28;20043;-71
2023/06/15 03:20:43;;;;;;;10.00;3.72;;;;;;;;;;5050128;28;20043;-68
2023/06/15 03:23:28;;;;;;;7.68;3.92;;;;;;;;;;5059123;28;20413;-68
2023/06/15 03:26:14;;;;;;;8.27;3.97;;;;;;;;;;5059847;28;20060;-66
2023/06/15 03:29:00;;;;;;;7.00;3.53;;;;;;;;;;5054126;28;20562;-67
2023/06/15 03:31:46;;;;;;;8.05;4.55;;;;;;;;;;5042193;28;20444;-68
2023/06/15 03:34:31;;;;;;;6.85;3.58;;;;;;;;;;5046758;28;20029;-68
2023/06/15 03:37:16;;;;;;;5.43;4.07;;;;;;;;;;5048800;28;20028;-63
2023/06/15 03:40:02;;;;;;;8.18;3.95;;;;;;;;;;5040398;28;20025;-69
2023/06/15 03:42:48;;;;;;;6.30;3.85;;;;;;;;;;5043382;28;20068;-70
2023/06/15 03:45:33;;;;;;;6.70;3.50;;;;;;;;;;5036064;28;20045;-69
2023/06/15 03:48:18;;;;;;;4.95;3.47;;;;;;;;;;5051924;28;20089;-69
2023/06/15 03:51:03;;;;;;;10.13;4.18;;;;;;;;;;5046551;28;20545;-69
2023/06/15 03:53:48;;;;;;;7.03;4.00;;;;;;;;;;5055578;28;20032;-64
2023/06/15 03:56:34;;;;;;;9.05;4.20;;;;;;;;;;5047906;28;20028;-66
2023/06/15 03:59:19;;;;;;;7.43;4.05;;;;;;;;;;5051545;28;20459;-65
2023/06/15 04:02:04;;;;;;;6.95;4.03;;;;;;;;;;5053850;28;20027;-63
2023/06/15 04:04:52;;;;;;;8.15;3.67;;;;;;;;;;5040789;28;20499;-63
2023/06/15 04:07:39;;;;;;;9.10;3.60;;;;;;;;;;5054513;28;20079;-63
2023/06/15 04:10:25;;;;;;;5.22;3.47;;;;;;;;;;5054993;28;20467;-61
2023/06/15 04:13:10;;;;;;;6.43;4.50;;;;;;;;;;5053293;28;20356;-70
2023/06/15 04:15:55;;;;;;;6.97;3.80;;;;;;;;;;5036275;28;20367;-67
2023/06/15 04:18:41;;;;;;;6.95;3.50;;;;;;;;;;5040921;28;20024;-65
2023/06/15 04:21:26;;;;;;;7.15;3.70;;;;;;;;;;5044046;28;20037;-66
2023/06/15 04:24:11;;;;;;;12.90;4.88;;;;;;;;;;5055310;28;20386;-66
2023/06/15 04:26:57;;;;;;;5.95;4.22;;;;;;;;;;5051832;28;20103;-67
2023/06/15 04:29:45;;;;;;;13.60;4.68;;;;;;;;;;5044574;28;20068;-75
2023/06/15 04:32:32;;;;;;;7.78;4.00;;;;;;;;;;5049515;28;20463;-63
2023/06/15 04:35:18;;;;;;;5.80;3.80;;;;;;;;;;5039451;28;20041;-74
2023/06/15 04:38:07;;;;;;;5.40;3.72;;;;;;;;;;5046297;28;20390;-74
2023/06/15 04:40:52;;;;;;;6.03;3.63;;;;;;;;;;5052893;28;20060;-75
2023/06/15 04:43:37;;;;;;;5.88;4.32;;;;;;;;;;5047355;28;20033;-74
2023/06/15 04:46:23;;;;;;;7.68;4.18;;;;;;;;;;5056354;28;20032;-78
2023/06/15 04:49:08;;;;;;;9.50;5.15;;;;;;;;;;5052177;28;20089;-76
2023/06/15 04:51:53;;;;;;;6.50;4.07;;;;;;;;;;5047018;28;20463;-75
2023/06/15 04:54:38;;;;;;;8.45;4.00;;;;;;;;;;5052424;28;20051;-73
2023/06/15 04:57:23;;;;;;;6.68;4.20;;;;;;;;;;5050472;28;20055;-74
2023/06/15 05:00:10;;;;;;;10.13;4.15;;;;;;;;;;5042205;28;20072;-74
2023/06/15 05:02:55;;;;;;;5.20;3.85;;;;;;;;;;5044663;28;20044;-75
2023/06/15 05:05:40;;;;;;;5.22;3.80;;;;;;;;;;5055186;28;20055;-74
2023/06/15 05:08:26;;;;;;;6.68;3.88;;;;;;;;;;5057661;28;20055;-65
2023/06/15 05:11:11;;;;;;;5.13;3.28;;;;;;;;;;5056999;28;20039;-63
2023/06/15 05:13:57;;;;;;;6.97;4.35;;;;;;;;;;5048650;28;20039;-68
2023/06/15 05:16:42;;;;;;;5.75;3.95;;;;;;;;;;5049557;28;20037;-68
2023/06/15 05:19:28;;;;;;;6.25;4.10;;;;;;;;;;5049319;28;20127;-67
2023/06/15 05:22:13;;;;;;;5.45;3.80;;;;;;;;;;5055495;28;20040;-68
2023/06/15 05:24:58;;;;;;;8.00;4.57;;;;;;;;;;5050277;28;20320;-66
2023/06/15 05:27:43;;;;;;;14.23;4.90;;;;;;;;;;5037268;28;20048;-64
2023/06/15 05:30:29;;;;;;;6.95;4.07;;;;;;;;;;5039061;28;20538;-67
2023/06/15 05:33:14;;;;;;;6.35;3.70;;;;;;;;;;5050591;28;20066;-66
2023/06/15 05:35:59;;;;;;;4.95;3.50;;;;;;;;;;5044414;28;20530;-70
2023/06/15 05:38:44;;;;;;;5.57;3.70;;;;;;;;;;5042080;28;20112;-67
2023/06/15 05:41:30;;;;;;;7.18;4.13;;;;;;;;;;5054699;28;20127;-68
2023/06/15 05:44:15;;;;;;;7.60;3.45;;;;;;;;;;5049774;28;20024;-71
2023/06/15 05:47:00;;;;;;;19.85;6.20;;;;;;;;;;5062677;28;20029;-72
2023/06/15 05:49:45;;;;;;;7.78;4.72;;;;;;;;;;5042466;28;20352;-74
2023/06/15 05:52:31;;;;;;;7.75;4.32;;;;;;;;;;5054195;28;20052;-72
2023/06/15 05:55:17;;;;;;;7.28;3.90;;;;;;;;;;5042854;28;20368;-71
2023/06/15 05:58:02;;;;;;;12.70;5.43;;;;;;;;;;5047165;28;20037;-73
2023/06/15 06:00:47;;;;;;;7.40;4.25;;;;;;;;;;5042311;28;20039;-72
2023/06/15 06:03:35;;;;;;;8.65;4.05;;;;;;;;;;5040708;28;20035;-61
2023/06/15 06:06:20;;;;;;;8.30;4.57;;;;;;;;;;5047909;28;20111;-69
2023/06/15 06:09:05;;;;;;;12.95;4.18;;;;;;;;;;5042963;28;20020;-70
2023/06/15 06:11:50;;;;;;;11.93;4.85;;;;;;;;;;5041457;28;20024;-69
2023/06/15 06:14:36;;;;;;;9.57;4.07;;;;;;;;;;5051094;28;20040;-70
2023/06/15 06:17:21;;;;;;;8.95;4.55;;;;;;;;;;5044415;28;20124;-69
2023/06/15 06:20:06;;;;;;;10.48;4.68;;;;;;;;;;5048094;28;20190;-66
2023/06/15 06:22:52;;;;;;;7.57;4.10;;;;;;;;;;5043840;28;20047;-66
2023/06/15 06:25:37;;;;;;;7.30;4.65;;;;;;;;;;5029496;28;20182;-64
2023/06/15 06:28:23;;;;;;;8.02;4.55;;;;;;;;;;5035853;28;20044;-64
2023/06/15 06:31:08;;;;;;;7.25;3.83;;;;;;;;;;5049056;28;20084;-62
2023/06/15 06:33:53;;;;;;;8.90;3.70;;;;;;;;;;5043120;28;20033;-63
2023/06/15 06:36:38;;;;;;;7.85;3.45;;;;;;;;;;5061571;28;20020;-62
2023/06/15 06:39:24;;;;;;;7.03;3.90;;;;;;;;;;5039321;28;20063;-70
2023/06/15 06:42:09;;;;;;;7.22;4.10;;;;;;;;;;5046867;28;20120;-64
2023/06/15 06:44:54;;;;;;;5.50;3.50;;;;;;;;;;5054209;28;20056;-61
2023/06/15 06:47:39;;;;;;;9.35;4.63;;;;;;;;;;5041370;28;20029;-62
2023/06/15 06:50:25;;;;;;;8.93;4.20;;;;;;;;;;5047627;28;20307;-63
2023/06/15 06:53:11;;;;;;;6.07;4.28;;;;;;;;;;5033306;28;20036;-61
2023/06/15 06:55:56;;;;;;;5.53;3.80;;;;;;;;;;5066949;28;20449;-66
2023/06/15 06:58:41;;;;;;;7.65;4.13;;;;;;;;;;5040746;28;20040;-66
2023/06/15 07:01:26;;;;;;;7.60;3.85;;;;;;;;;;5045892;28;20055;-64
2023/06/15 07:04:11;;;;;;;5.72;3.95;;;;;;;;;;5040806;28;20186;-64
2023/06/15 07:06:57;;;;;;;9.35;4.53;;;;;;;;;;5045922;28;20063;-62
2023/06/15 07:09:42;;;;;;;7.25;3.70;;;;;;;;;;5053469;28;20553;-60
2023/06/15 07:12:27;;;;;;;9.90;4.60;;;;;;;;;;5041686;28;20048;-62
2023/06/15 07:15:13;;;;;;;9.32;4.43;;;;;;;;;;5057124;28;20028;-64
2023/06/15 07:17:58;;;;;;;8.35;3.75;;;;;;;;;;5043332;28;20116;-69
2023/06/15 07:20:43;;;;;;;7.65;4.75;;;;;;;;;;5046221;28;20070;-86
2023/06/15 07:23:29;;;;;;;6.60;3.67;;;;;;;;;;5050436;28;20040;-85
2023/06/15 07:26:14;;;;;;;12.73;3.83;;;;;;;;;;5044838;28;20098;-85
2023/06/15 07:28:59;;;;;;;8.57;4.05;;;;;;;;;;5051221;28;20036;-81
2023/06/15 07:31:46;;;;;;;7.00;4.07;;;;;;;;;;5043626;28;20036;-80
2023/06/15 07:34:31;;;;;;;9.52;4.18;;;;;;;;;;5041025;28;20029;-73
2023/06/15 07:37:16;;;;;;;7.43;3.90;;;;;;;;;;5044574;28;20047;-69
2023/06/15 07:40:02;;;;;;;11.23;3.88;;;;;;;;;;5053588;28;20032;-69
2023/06/15 07:42:47;;;;;;;7.85;3.95;;;;;;;;;;5046832;28;20037;-69
2023/06/15 07:45:32;;;;;;;5.55;3.38;;;;;;;;;;5047795;28;20682;-69
2023/06/15 07:48:17;;;;;;;11.95;5.60;;;;;;;;;;5036855;28;20040;-70
2023/06/15 07:51:02;;;;;;;6.07;3.95;;;;;;;;;;5045402;28;20424;-73
2023/06/15 07:53:48;;;;;;;4.63;3.58;;;;;;;;;;5036952;28;20033;-66
2023/06/15 07:56:33;;;;;;;6.88;4.13;;;;;;;;;;5038297;28;20163;-70
2023/06/15 07:59:18;;;;;;;7.75;4.03;;;;;;;;;;5041471;28;20127;-71
2023/06/15 08:02:04;;;;;;;6.60;4.00;;;;;;;;;;5043290;28;20479;-74
2023/06/15 08:04:49;;;;;;;6.32;3.88;;;;;;;;;;5037207;28;20040;-73
2023/06/15 08:07:35;;;;;;;8.65;3.67;;;;;;;;;;5053412;28;20162;-72
2023/06/15 08:10:20;;;;;;;6.13;3.90;;;;;;;;;;5044105;28;20099;-71
2023/06/15 08:13:06;;;;;;;5.90;3.40;;;;;;;;;;5054722;28;20036;-72
2023/06/15 08:15:52;;;;;;;7.80;4.05;;;;;;;;;;5051690;28;20028;-73
2023/06/15 08:18:37;;;;;;;6.88;4.32;;;;;;;;;;5046410;28;20044;-72
2023/06/15 08:21:22;;;;;;;6.68;3.88;;;;;;;;;;5049161;28;20391;-75
2023/06/15 08:24:07;;;;;;;7.20;4.15;;;;;;;;;;5046363;28;20048;-74
2023/06/15 08:26:53;;;;;;;5.28;3.35;;;;;;;;;;5036214;28;20075;-74
2023/06/15 08:29:43;;;;;;;8.68;4.00;;;;;;;;;;5056050;28;20048;-74
2023/06/15 08:32:29;;;;;;;6.97;4.10;;;;;;;;;;5043606;28;20044;-69
2023/06/15 08:35:14;;;;;;;4.85;3.00;;;;;;;;;;5044608;28;20028;-69
2023/06/15 08:37:59;;;;;;;6.70;3.33;;;;;;;;;;5040205;28;20078;-72
2023/06/15 08:40:45;;;;;;;6.82;3.85;;;;;;;;;;5037765;28;20060;-70
2023/06/15 08:43:32;;;;;;;6.90;3.78;;;;;;;;;;5053410;28;20029;-69
2023/06/15 08:46:17;;;;;;;5.70;3.83;;;;;;;;;;5044950;28;20070;-69
2023/06/15 08:49:02;;;;;;;12.88;4.00;;;;;;;;;;5037874;28;20029;-70
2023/06/15 08:51:49;;;;;;;7.82;3.40;;;;;;;;;;5044880;28;20031;-79
2023/06/15 08:54:35;;;;;;;7.50;3.13;;;;;;;;;;5042408;28;20494;-80
2023/06/15 08:57:21;;;;;;;7.10;4.45;;;;;;;;;;5028034;28;20151;-82
2023/06/15 09:00:09;;;;;;;7.03;3.65;;;;;;;;;;5035440;28;20033;-83
2023/06/15 09:02:56;;;;;;;6.80;3.15;;;;;;;;;;5047511;28;20253;-81
2023/06/15 09:05:42;;;;;;;9.90;3.65;;;;;;;;;;5042943;28;20494;-80
2023/06/15 09:08:27;;;;;;;6.80;3.70;;;;;;;;;;5043353;28;20035;-74
2023/06/15 09:11:13;;;;;;;7.20;3.50;;;;;;;;;;5040988;28;20094;-67
2023/06/15 09:13:58;;;;;;;4.85;3.15;;;;;;;;;;5021542;28;20044;-69
2023/06/15 09:16:43;;;;;;;6.97;4.03;;;;;;;;;;5053940;28;20055;-67
2023/06/15 09:19:35;;;;;;;5.97;3.88;;;;;;;;;;5037226;28;20272;-66
2023/06/15 09:22:20;;;;;;;9.02;4.10;;;;;;;;;;5041823;28;20040;-66
2023/06/15 09:25:16;;;;;;;6.32;3.55;;;;;;;;;;5049224;28;20040;-71
2023/06/15 09:28:01;;;;;;;7.43;3.78;;;;;;;;;;5043414;28;20100;-65
2023/06/15 09:30:51;;;;;;;6.28;3.15;;;;;;;;;;5043808;28;20119;-67
2023/06/15 09:33:37;;;;;;;6.32;3.22;;;;;;;;;;5048840;28;20030;-68
2023/06/15 09:36:22;;;;;;;7.05;3.05;;;;;;;;;;5054998;28;20598;-68
2023/06/15 09:39:09;;;;;;;5.15;3.08;;;;;;;;;;5046093;28;20029;-66
2023/06/15 09:41:58;;;;;;;4.85;3.28;;;;;;;;;;5055918;28;20040;-68
2023/06/15 09:44:43;;;;;;;;;;;;;;;;;;5043081;28;20410;-71
2023/06/15 09:47:29;;;;;;;4.70;3.40;;;;;;;;;;5063704;28;19912;-70
2023/06/15 09:50:15;;;;;;;7.07;3.03;;;;;;;;;;5044975;28;20037;-71
2023/06/15 09:53:02;;;;;;;3.67;2.97;;;;;;;;;;5049323;28;20581;-72
2023/06/15 09:55:48;;;;;;;5.05;3.38;;;;;;;;;;5052974;28;20082;-71
2023/06/15 09:58:33;;;;;;;5.45;3.55;;;;;;;;;;5046337;28;20093;-71
2023/06/15 10:01:19;;;;;;;7.55;3.17;;;;;;;;;;5043820;28;20104;-65
2023/06/15 10:04:06;;;;;;;6.95;3.33;;;;;;;;;;5048496;28;20466;-80
2023/06/15 10:06:55;;;;;;;6.63;3.28;;;;;;;;;;5034475;28;20064;-80
2023/06/15 10:09:44;;;;;;;8.45;2.83;;;;;;;;;;5048982;28;20390;-80
2023/06/15 10:12:30;;;;;;;5.43;3.20;;;;;;;;;;5045811;28;20174;-81
2023/06/15 10:15:20;;;;;;;7.78;3.35;;;;;;;;;;5052575;28;20020;-79
2023/06/15 10:18:08;;;;;;;5.80;3.08;;;;;;;;;;5062411;28;20035;-77
2023/06/15 10:20:54;;;;;;;7.15;3.63;;;;;;;;;;5041921;28;21863;-63
2023/06/15 10:23:41;;;;;;;7.05;3.60;;;;;;;;;;5049419;28;20048;-63
2023/06/15 10:26:26;;;;;;;7.65;3.15;;;;;;;;;;5050326;28;20036;-62
2023/06/15 10:29:24;;;;;;;6.68;3.60;;;;;;;;;;5059176;28;20366;-60
2023/06/15 10:32:14;;;;;;;6.45;3.67;;;;;;;;;;5055998;28;20028;-63
2023/06/15 10:35:11;;;;;;;7.57;3.25;;;;;;;;;;5023244;28;20622;-62
2023/06/15 10:38:17;;;;;;;4.40;2.70;;;;;;;;;;5049212;28;20027;-81
2023/06/15 10:41:03;;;;;;;6.72;2.95;;;;;;;;;;5033436;28;20041;-64
2023/06/15 10:43:58;;;;;;;4.82;2.50;;;;;;;;;;5029845;28;20610;-60
2023/06/15 10:46:44;;;;;;;3.88;2.60;;;;;;;;;;5040365;28;20091;-61
2023/06/15 10:49:31;;;;;;;5.22;2.92;;;;;;;;;;5054335;28;20067;-64
2023/06/15 10:52:16;;;;;;;6.63;3.28;;;;;;;;;;5048172;28;20023;-62
2023/06/15 10:55:06;;;;;;;4.60;2.70;;;;;;;;;;5055488;28;20027;-60
2023/06/15 10:57:51;;;;;;;;;;;;;;;;;;5049379;28;20635;-74
2023/06/15 11:00:50;;;;;;;6.15;3.13;;;;;;;;;;5054473;28;19967;-79
2023/06/15 11:03:35;;;;;;;4.07;3.05;;;;;;;;;;5052625;28;20028;-76
2023/06/15 11:06:41;;;;;;;4.68;2.90;;;;;;;;;;5047909;28;20115;-78
2023/06/15 11:09:29;;;;;;;5.15;3.20;;;;;;;;;;5069782;28;20040;-76
2023/06/15 11:12:35;;;;;;;7.88;3.72;;;;;;;;;;5048585;28;20475;-76
2023/06/15 11:15:46;;;;;;;4.50;2.63;;;;;;;;;;5049920;28;20055;-64
2023/06/15 11:18:32;;;;;;;4.68;2.88;;;;;;;;;;5065836;22;20056;-66
2023/06/15 11:21:24;;;;;;;8.45;3.67;;;;;;;;;;5046077;28;20048;-63
2023/06/15 11:24:13;;;;;;;5.28;2.67;;;;;;;;;;5050949;28;20040;-69
2023/06/15 11:27:02;;;;;;;3.78;2.85;;;;;;;;;;5052609;28;20035;-65
2023/06/15 11:29:47;;;;;;;4.35;3.08;;;;;;;;;;5070877;28;20645;-65
2023/06/15 11:32:32;;;;;;;6.90;3.25;;;;;;;;;;5052331;28;20517;-65
2023/06/15 11:35:18;;;;;;;5.63;3.30;;;;;;;;;;5052791;28;20133;-62
2023/06/15 11:38:07;;;;;;;12.15;2.97;;;;;;;;;;5050798;28;21719;-71
2023/06/15 11:41:02;;;;;;;4.00;2.80;;;;;;;;;;5051235;28;20595;-70
2023/06/15 11:43:48;;;;;;;5.40;3.40;;;;;;;;;;5035603;28;20036;-69
2023/06/15 11:46:34;;;;;;;5.80;3.22;;;;;;;;;;5047302;28;20032;-72
2023/06/15 11:49:19;;;;;;;5.38;2.97;;;;;;;;;;5056319;28;20029;-71
2023/06/15 11:52:05;;;;;;;4.18;2.90;;;;;;;;;;5056223;28;20072;-65
2023/06/15 11:54:50;;;;;;;4.38;3.05;;;;;;;;;;5051312;28;20029;-72
2023/06/15 11:57:36;;;;;;;8.07;2.90;;;;;;;;;;5041976;28;20044;-70
2023/06/15 12:00:21;;;;;;;6.60;3.10;;;;;;;;;;5028330;28;20040;-70
2023/06/15 12:03:10;;;;;;;4.47;3.13;;;;;;;;;;5047734;28;20028;-70
2023/06/15 12:05:57;;;;;;;6.38;3.08;;;;;;;;;;5051922;28;20429;-72
2023/06/15 12:08:43;;;;;;;4.38;2.70;;;;;;;;;;5049920;28;20063;-71
2023/06/15 12:11:29;;;;;;;4.32;2.80;;;;;;;;;;5040724;28;20029;-65
2023/06/15 12:14:20;;;;;;;4.00;2.75;;;;;;;;;;5055418;28;20051;-75
2023/06/15 12:17:06;;;;;;;3.40;2.65;;;;;;;;;;5073536;28;20426;-75
2023/06/15 12:19:57;;;;;;;3.80;2.47;;;;;;;;;;5051608;28;20082;-73
2023/06/15 12:22:44;;;;;;;4.20;2.60;;;;;;;;;;5049252;28;20034;-74
2023/06/15 12:25:42;;;;;;;4.03;2.88;;;;;;;;;;5054995;28;20027;-75
2023/06/15 12:28:30;;;;;;;6.13;2.80;;;;;;;;;;5057210;28;20040;-72
2023/06/15 12:31:16;;;;;;;3.45;2.58;;;;;;;;;;5053077;28;20032;-63
2023/06/15 12:34:05;;;;;;;6.72;2.83;;;;;;;;;;5054153;28;20158;-62
2023/06/15 12:36:50;;;;;;;;;;;;;;;;;;5054138;28;20079;-64
2023/06/15 12:39:37;;;;;;;5.30;2.95;;;;;;;;;;5057311;28;20079;-62
2023/06/15 12:42:23;;;;;;;5.95;2.83;;;;;;;;;;5051719;28;20040;-65
2023/06/15 12:45:08;;;;;;;5.03;2.40;;;;;;;;;;5049921;28;20047;-64
2023/06/15 12:47:54;;;;;;;4.65;2.65;;;;;;;;;;5054341;28;20081;-72
2023/06/15 12:50:39;;;;;;;6.35;3.10;;;;;;;;;;5046310;28;20460;-74
2023/06/15 12:53:25;;;;;;;5.13;3.35;;;;;;;;;;5053031;28;20017;-71
2023/06/15 12:56:10;;;;;;;5.70;2.55;;;;;;;;;;5053273;28;20052;-71
2023/06/15 12:58:55;;;;;;;4.90;2.95;;;;;;;;;;5048683;28;20174;-74
2023/06/15 13:01:41;;;;;;;4.82;3.10;;;;;;;;;;5056313;28;20036;-73
2023/06/15 13:04:26;;;;;;;5.32;3.08;;;;;;;;;;5051918;28;20040;-72
2023/06/15 13:07:12;;;;;;;5.03;3.20;;;;;;;;;;5051852;28;20197;-73
2023/06/15 13:09:57;;;;;;;3.60;2.70;;;;;;;;;;5049361;28;20024;-73
2023/06/15 13:12:43;;;;;;;4.30;2.83;;;;;;;;;;5050259;28;20037;-73
2023/06/15 13:15:29;;;;;;;5.22;2.92;;;;;;;;;;5049463;28;20082;-75
2023/06/15 13:18:14;;;;;;;3.90;2.97;;;;;;;;;;5052053;28;20067;-71
2023/06/15 13:21:00;;;;;;;5.13;3.00;;;;;;;;;;5053334;28;20759;-73
2023/06/15 13:23:45;;;;;;;4.50;2.60;;;;;;;;;;5046913;28;20036;-69
2023/06/15 13:26:30;;;;;;;4.65;2.95;;;;;;;;;;5052141;28;20514;-76
2023/06/15 13:29:15;;;;;;;4.97;3.15;;;;;;;;;;5053680;28;20040;-73
2023/06/15 13:32:03;;;;;;;3.65;2.60;;;;;;;;;;5051671;28;20479;-72
2023/06/15 13:34:48;;;;;;;5.38;2.78;;;;;;;;;;5050006;28;20032;-75
2023/06/15 13:37:34;;;;;;;4.10;3.22;;;;;;;;;;5057505;28;20025;-74
2023/06/15 13:40:19;;;;;;;6.10;3.03;;;;;;;;;;5066395;28;20070;-72
2023/06/15 13:43:05;;;;;;;5.63;3.28;;;;;;;;;;5054664;28;20119;-63
2023/06/15 13:45:50;;;;;;;4.93;2.67;;;;;;;;;;5050872;28;20024;-66
2023/06/15 13:48:35;;;;;;;2.90;2.47;;;;;;;;;;5048657;28;20060;-68
2023/06/15 13:51:21;;;;;;;2.75;2.28;;;;;;;;;;5050864;28;20447;-68
2023/06/15 13:54:06;;;;;;;6.93;2.55;;;;;;;;;;5057701;28;20942;-66
2023/06/15 13:56:52;;;;;;;4.75;2.47;;;;;;;;;;5052362;28;20025;-66
2023/06/15 13:59:37;;;;;;;5.00;3.40;;;;;;;;;;5053542;28;20076;-67
2023/06/15 14:02:22;;;;;;;5.15;2.53;;;;;;;;;;5050411;28;20124;-73
2023/06/15 14:05:09;;;;;;;5.93;2.55;;;;;;;;;;5059665;28;20040;-63
2023/06/15 14:07:54;;;;;;;5.30;3.42;;;;;;;;;;5055562;28;20103;-62
2023/06/15 14:10:39;;;;;;;5.18;2.55;;;;;;;;;;5048632;28;20033;-65
2023/06/15 14:13:26;;;;;;;7.47;3.00;;;;;;;;;;5049256;28;20032;-64
2023/06/15 14:16:11;;;;;;;3.90;2.92;;;;;;;;;;5046585;28;20055;-62
2023/06/15 14:18:57;;;;;;;2.92;2.45;;;;;;;;;;5053432;28;20055;-67
2023/06/15 14:21:43;;;;;;;4.55;2.70;;;;;;;;;;5037237;28;20032;-64
2023/06/15 14:24:28;;;;;;;3.35;2.70;;;;;;;;;;5053382;28;20033;-65
2023/06/15 14:27:13;;;;;;;4.25;2.78;;;;;;;;;;5048097;28;20361;-64
2023/06/15 14:29:58;;;;;;;4.05;2.22;;;;;;;;;;5047176;28;20029;-64
2023/06/15 14:32:43;;;;;;;3.63;2.30;;;;;;;;;;5049254;28;20036;-64
2023/06/15 14:35:29;;;;;;;6.28;3.00;;;;;;;;;;5053896;28;20055;-63
2023/06/15 14:38:14;;;;;;;6.25;2.63;;;;;;;;;;5056664;28;20040;-70
2023/06/15 14:40:59;;;;;;;6.07;2.75;;;;;;;;;;5038203;28;20083;-69
2023/06/15 14:43:44;;;;;;;5.25;2.80;;;;;;;;;;5043718;28;20402;-68
2023/06/15 14:46:29;;;;;;;4.05;2.47;;;;;;;;;;5051931;28;20132;-67
2023/06/15 14:49:15;;;;;;;3.47;2.42;;;;;;;;;;5048474;28;20136;-69
2023/06/15 14:52:00;;;;;;;6.63;3.67;;;;;;;;;;5066745;28;20164;-70
2023/06/15 14:54:45;;;;;;;3.85;2.33;;;;;;;;;;5051736;28;20672;-69
2023/06/15 14:57:31;;;;;;;4.03;2.53;;;;;;;;;;5048183;28;20368;-62
2023/06/15 15:00:16;;;;;;;4.88;2.60;;;;;;;;;;5050069;28;20037;-62
2023/06/15 15:03:03;;;;;;;3.33;2.22;;;;;;;;;;5052860;28;20032;-62
2023/06/15 15:05:48;;;;;;;4.65;2.53;;;;;;;;;;5053887;28;20066;-63
2023/06/15 15:08:33;;;;;;;3.05;2.38;;;;;;;;;;5049298;28;20303;-62
2023/06/15 15:11:22;;;;;;;3.97;2.50;;;;;;;;;;5047761;28;20037;-63
2023/06/15 15:14:07;;;;;;;3.67;3.10;;;;;;;;;;5048994;28;20098;-61
2023/06/15 15:16:52;;;;;;;3.78;2.38;;;;;;;;;;5052660;28;20587;-71
2023/06/15 15:19:37;;;;;;;3.65;2.55;;;;;;;;;;5052060;28;20071;-71
2023/06/15 15:22:23;;;;;;;4.07;2.50;;;;;;;;;;5060398;28;20086;-71
2023/06/15 15:25:09;;;;;;;3.45;2.53;;;;;;;;;;5048963;28;20068;-72
2023/06/15 15:27:54;;;;;;;5.40;2.60;;;;;;;;;;5048787;28;20314;-71
2023/06/15 15:30:40;;;;;;;2.35;2.00;;;;;;;;;;5060718;28;20039;-71
2023/06/15 15:33:25;;;;;;;2.75;2.10;;;;;;;;;;5053027;28;20098;-74
2023/06/15 15:36:10;;;;;;;3.72;2.35;;;;;;;;;;5062182;28;20029;-71
2023/06/15 15:38:56;;;;;;;4.18;2.13;;;;;;;;;;5051622;28;20037;-70
2023/06/15 15:41:41;;;;;;;3.83;2.20;;;;;;;;;;5057756;28;20039;-71
2023/06/15 15:44:26;;;;;;;4.55;2.70;;;;;;;;;;5063734;28;20032;-70
2023/06/15 15:47:11;;;;;;;4.03;2.47;;;;;;;;;;5049974;28;20024;-68
2023/06/15 15:49:57;;;;;;;3.17;2.30;;;;;;;;;;5059157;28;20576;-69
2023/06/15 15:52:42;;;;;;;3.90;2.10;;;;;;;;;;5046757;28;20033;-64
2023/06/15 15:55:28;;;;;;;4.20;2.53;;;;;;;;;;5062544;28;20040;-63
2023/06/15 15:58:13;;;;;;;4.13;2.50;;;;;;;;;;5054057;28;20378;-62
2023/06/15 16:00:58;;;;;;;3.60;2.40;;;;;;;;;;5052543;28;20024;-63
2023/06/15 16:03:43;;;;;;;5.65;2.45;;;;;;;;;;5067686;28;20036;-60
2023/06/15 16:06:29;;;;;;;2.60;2.13;;;;;;;;;;5061948;28;20332;-67
2023/06/15 16:09:14;;;;;;;5.22;2.72;;;;;;;;;;5051674;28;20498;-72
2023/06/15 16:11:59;;;;;;;2.97;2.00;;;;;;;;;;5052514;28;20036;-63
2023/06/15 16:14:45;;;;;;;3.78;2.78;;;;;;;;;;5051929;28;20035;-63
2023/06/15 16:17:30;;;;;;;2.83;2.40;;;;;;;;;;5036818;28;20032;-63
2023/06/15 16:20:15;;;;;;;3.53;2.38;;;;;;;;;;5063306;28;20043;-64
2023/06/15 16:23:00;;;;;;;5.68;2.60;;;;;;;;;;5056079;28;20079;-64
2023/06/15 16:25:46;;;;;;;4.22;2.63;;;;;;;;;;5053142;28;20070;-63
2023/06/15 16:28:32;;;;;;;4.05;2.63;;;;;;;;;;5062806;28;20042;-70
2023/06/15 16:31:17;;;;;;;5.05;2.65;;;;;;;;;;5053053;28;20032;-71
2023/06/15 16:34:03;;;;;;;3.28;2.22;;;;;;;;;;5054473;28;20032;-68
2023/06/15 16:36:48;;;;;;;3.30;2.50;;;;;;;;;;5054555;28;20486;-69